Time;durP1;ratioP1;P1;durP2;ratioP2;P2;SDS_P1;SDS_P2;PMS_P1;PMS_P2;Temp;Humidity;BMP_temperature;BMP_pressure;BME280_temperature;BME280_humidity;BME280_pressure;Samples;Min_cycle;Max_cycle;Signal;HPM_P1;HPM_P2
2021/09/05 00:00:53;;;;;;;7.35;5.97;;;16.20;82.00;;;;;;5028373;28;20512;-68
2021/09/05 00:03:18;;;;;;;8.05;6.22;;;16.20;82.00;;;;;;5033598;28;20020;-69
2021/09/05 00:05:44;;;;;;;10.25;5.72;;;16.10;82.00;;;;;;5033092;28;20100;-69
2021/09/05 00:08:10;;;;;;;8.52;5.95;;;16.10;82.10;;;;;;5033336;28;20034;-69
2021/09/05 00:10:35;;;;;;;6.22;5.45;;;16.00;82.30;;;;;;5032870;28;20025;-69
2021/09/05 00:13:01;;;;;;;7.78;5.60;;;16.00;82.40;;;;;;5025925;28;20030;-69
2021/09/05 00:15:26;;;;;;;9.32;5.88;;;15.90;82.50;;;;;;5032808;28;20033;-69
2021/09/05 00:17:52;;;;;;;8.65;6.13;;;15.90;82.60;;;;;;5033501;28;20065;-69
2021/09/05 00:20:17;;;;;;;10.23;6.10;;;15.80;82.70;;;;;;5033504;28;20030;-69
2021/09/05 00:22:46;;;;;;;9.88;5.75;;;15.80;82.90;;;;;;5029560;28;20108;-69
2021/09/05 00:25:12;;;;;;;10.48;6.47;;;15.70;83.00;;;;;;5026626;28;20034;-69
2021/09/05 00:27:38;;;;;;;9.45;5.78;;;15.70;83.10;;;;;;5029105;28;20485;-69
2021/09/05 00:30:06;;;;;;;6.93;5.63;;;15.60;83.20;;;;;;5032574;28;20064;-69
2021/09/05 00:32:32;;;;;;;8.85;6.57;;;15.60;83.40;;;;;;5015567;28;20639;-68
2021/09/05 00:34:57;;;;;;;8.57;5.75;;;15.50;83.40;;;;;;5032496;28;20033;-68
2021/09/05 00:37:23;;;;;;;7.68;5.57;;;15.50;83.50;;;;;;5033311;28;20084;-69
2021/09/05 00:39:48;;;;;;;7.65;5.90;;;15.50;83.50;;;;;;5031256;28;20699;-68
2021/09/05 00:42:22;;;;;;;6.97;5.50;;;15.50;83.50;;;;;;5036843;28;20018;-69
2021/09/05 00:44:48;;;;;;;9.25;5.35;;;15.50;83.70;;;;;;5031094;28;20045;-69
2021/09/05 00:47:13;;;;;;;6.32;5.15;;;15.50;83.60;;;;;;5033034;28;20065;-69
2021/09/05 00:49:39;;;;;;;7.07;5.60;;;15.40;83.60;;;;;;5015163;28;20091;-69
2021/09/05 00:52:05;;;;;;;10.35;5.53;;;15.40;83.70;;;;;;5027753;28;20060;-68
2021/09/05 00:54:30;;;;;;;9.68;5.95;;;15.40;83.70;;;;;;5023474;28;20025;-69
2021/09/05 00:56:56;;;;;;;8.68;6.25;;;15.40;83.80;;;;;;5030798;28;20369;-69
2021/09/05 00:59:23;;;;;;;9.13;6.03;;;15.30;83.80;;;;;;5031380;28;20026;-69
2021/09/05 01:01:48;;;;;;;9.55;6.20;;;15.30;83.90;;;;;;5031216;28;20026;-69
2021/09/05 01:04:14;;;;;;;7.78;6.03;;;15.30;84.10;;;;;;5032428;28;20036;-69
2021/09/05 01:06:40;;;;;;;8.15;6.40;;;15.30;84.20;;;;;;5014359;28;20029;-69
2021/09/05 01:09:07;;;;;;;8.30;6.00;;;15.20;84.20;;;;;;5031855;28;20075;-69
2021/09/05 01:11:34;;;;;;;8.23;5.90;;;15.20;84.40;;;;;;5036334;28;20052;-69
2021/09/05 01:14:05;;;;;;;8.05;6.00;;;15.20;84.40;;;;;;5030336;28;20129;-69
2021/09/05 01:16:40;;;;;;;6.93;5.90;;;15.20;84.50;;;;;;5031889;28;20026;-69
2021/09/05 01:19:14;;;;;;;9.88;6.38;;;15.20;84.60;;;;;;5030889;28;20148;-69
2021/09/05 01:21:41;;;;;;;6.70;5.47;;;15.20;84.50;;;;;;5039979;28;20056;-68
2021/09/05 01:24:07;;;;;;;6.18;5.43;;;15.10;84.40;;;;;;5032190;28;20426;-69
2021/09/05 01:26:35;;;;;;;8.65;5.00;;;15.10;84.50;;;;;;5031805;28;20029;-69
2021/09/05 01:29:02;;;;;;;8.38;5.47;;;15.00;84.60;;;;;;5030817;28;20076;-68
2021/09/05 01:31:41;;;;;;;7.57;5.53;;;15.00;84.80;;;;;;5022074;28;20029;-69
2021/09/05 01:34:07;;;;;;;7.05;5.55;;;15.00;85.10;;;;;;5011912;28;20038;-69
2021/09/05 01:36:34;;;;;;;8.13;5.60;;;14.90;84.80;;;;;;5031049;28;20111;-69
2021/09/05 01:38:59;;;;;;;8.57;5.80;;;14.90;84.90;;;;;;5014256;28;20030;-69
2021/09/05 01:41:25;;;;;;;7.18;5.57;;;14.80;85.00;;;;;;5024831;28;20017;-69
2021/09/05 01:43:57;;;;;;;6.53;5.43;;;14.80;85.10;;;;;;5033887;28;20119;-69
2021/09/05 01:46:22;;;;;;;8.63;5.70;;;14.70;85.40;;;;;;5013566;28;20030;-69
2021/09/05 01:48:48;;;;;;;5.82;4.45;;;14.70;85.30;;;;;;5031580;28;20064;-69
2021/09/05 01:51:14;;;;;;;7.80;5.03;;;14.70;85.50;;;;;;5026874;28;20032;-69
2021/09/05 01:53:39;;;;;;;9.55;5.25;;;14.70;85.50;;;;;;5013757;28;20335;-69
2021/09/05 01:56:05;;;;;;;7.43;5.03;;;14.70;85.50;;;;;;5012085;28;20111;-69
2021/09/05 01:58:30;;;;;;;6.32;5.20;;;14.60;85.50;;;;;;5027459;28;20025;-69
2021/09/05 02:00:56;;;;;;;9.55;5.25;;;14.60;85.50;;;;;;5013348;28;20029;-69
2021/09/05 02:03:21;;;;;;;7.47;4.95;;;14.60;85.50;;;;;;5021250;28;20036;-68
2021/09/05 02:05:47;;;;;;;8.63;4.80;;;14.60;85.50;;;;;;5005349;28;20022;-69
2021/09/05 02:08:12;;;;;;;6.70;5.05;;;14.60;85.50;;;;;;5025617;28;20075;-69
2021/09/05 02:10:38;;;;;;;6.63;5.15;;;14.60;85.60;;;;;;5019060;28;20053;-69
2021/09/05 02:13:03;;;;;;;5.45;4.57;;;14.50;85.60;;;;;;5010738;28;20477;-69
2021/09/05 02:15:29;;;;;;;6.85;5.32;;;14.50;85.60;;;;;;5027315;28;20439;-69
2021/09/05 02:17:55;;;;;;;7.03;5.18;;;14.60;85.60;;;;;;5018699;28;20026;-69
2021/09/05 02:20:20;;;;;;;7.25;4.70;;;14.50;85.50;;;;;;5031391;28;20033;-68
2021/09/05 02:22:46;;;;;;;6.15;4.82;;;14.50;85.60;;;;;;5031049;28;20033;-69
2021/09/05 02:25:11;;;;;;;8.38;5.05;;;14.50;85.50;;;;;;5030457;28;20049;-69
2021/09/05 02:27:37;;;;;;;6.50;4.88;;;14.50;86.00;;;;;;5029830;28;20128;-68
2021/09/05 02:30:04;;;;;;;5.13;4.30;;;14.50;85.50;;;;;;5018835;28;20381;-69
2021/09/05 02:32:30;;;;;;;5.85;4.88;;;14.40;85.60;;;;;;5008549;28;20120;-69
2021/09/05 02:34:56;;;;;;;8.23;4.80;;;14.40;85.60;;;;;;5030094;28;20140;-69
2021/09/05 02:37:21;;;;;;;7.03;4.93;;;14.30;85.70;;;;;;5012717;28;20434;-69
2021/09/05 02:39:47;;;;;;;6.63;4.85;;;14.30;85.70;;;;;;5033297;28;20017;-69
2021/09/05 02:42:12;;;;;;;6.30;4.85;;;14.30;85.80;;;;;;5030223;28;20021;-69
2021/09/05 02:44:38;;;;;;;5.40;4.40;;;14.20;85.90;;;;;;5021063;28;20472;-69
2021/09/05 02:47:03;;;;;;;7.18;4.70;;;14.20;86.00;;;;;;5039691;28;20026;-69
2021/09/05 02:49:29;;;;;;;6.90;5.22;;;14.20;86.00;;;;;;5030638;28;20030;-69
2021/09/05 02:51:55;;;;;;;7.32;4.80;;;14.20;85.90;;;;;;5026500;28;20036;-69
2021/09/05 02:54:20;;;;;;;7.65;4.45;;;14.10;85.90;;;;;;5008359;28;20428;-68
2021/09/05 02:56:46;;;;;;;7.90;4.82;;;14.10;86.00;;;;;;5008531;28;20124;-69
2021/09/05 02:59:11;;;;;;;7.47;4.97;;;14.10;86.10;;;;;;5030071;28;20025;-69
2021/09/05 03:01:37;;;;;;;6.25;5.22;;;14.00;86.10;;;;;;5030407;28;20029;-69
2021/09/05 03:04:03;;;;;;;6.93;5.03;;;14.00;86.10;;;;;;5012812;28;20021;-69
2021/09/05 03:06:28;;;;;;;6.20;4.65;;;13.90;86.70;;;;;;5010410;28;20112;-69
2021/09/05 03:08:54;;;;;;;7.05;5.43;;;13.90;86.30;;;;;;5028970;28;20112;-69
2021/09/05 03:11:19;;;;;;;5.88;4.68;;;13.90;86.30;;;;;;5019648;28;20059;-69
2021/09/05 03:13:47;;;;;;;6.97;4.85;;;13.90;86.30;;;;;;5008478;28;20509;-69
2021/09/05 03:16:13;;;;;;;5.90;4.90;;;13.90;86.40;;;;;;5018519;28;20101;-69
2021/09/05 03:18:39;;;;;;;9.93;4.82;;;13.90;86.40;;;;;;5030060;28;20049;-68
2021/09/05 03:21:05;;;;;;;8.63;5.30;;;13.90;86.40;;;;;;5030617;28;20127;-69
2021/09/05 03:23:30;;;;;;;6.75;5.25;;;13.80;86.20;;;;;;5017336;28;20106;-68
2021/09/05 03:25:56;;;;;;;7.88;5.63;;;13.80;86.20;;;;;;5029455;28;20462;-69
2021/09/05 03:28:21;;;;;;;8.30;5.30;;;13.80;86.30;;;;;;5020930;28;20373;-69
2021/09/05 03:30:47;;;;;;;6.03;4.82;;;13.70;86.30;;;;;;5011588;28;20033;-69
2021/09/05 03:33:13;;;;;;;8.68;5.80;;;13.70;86.50;;;;;;5022257;28;20029;-69
2021/09/05 03:35:38;;;;;;;9.10;5.88;;;13.60;86.60;;;;;;5014968;28;20026;-68
2021/09/05 03:38:04;;;;;;;7.28;5.35;;;13.60;86.60;;;;;;5019270;28;20460;-69
2021/09/05 03:40:29;;;;;;;10.80;5.72;;;13.60;86.60;;;;;;5029411;28;20025;-69
2021/09/05 03:42:55;;;;;;;8.55;5.53;;;13.60;86.70;;;;;;5027759;28;20021;-69
2021/09/05 03:45:20;;;;;;;10.35;6.60;;;13.60;86.70;;;;;;5015826;28;20025;-69
2021/09/05 03:47:46;;;;;;;10.15;6.90;;;13.60;86.60;;;;;;5029603;28;20044;-69
2021/09/05 03:50:12;;;;;;;7.63;5.55;;;13.60;86.50;;;;;;5025701;28;20030;-69
2021/09/05 03:52:37;;;;;;;6.68;5.63;;;13.60;86.70;;;;;;5028103;28;20037;-69
2021/09/05 03:55:05;;;;;;;7.70;5.72;;;13.60;86.70;;;;;;5028922;28;20051;-69
2021/09/05 03:57:31;;;;;;;10.23;6.85;;;13.60;86.60;;;;;;5027001;28;20033;-68
2021/09/05 03:59:56;;;;;;;8.63;6.00;;;13.60;86.60;;;;;;5029727;28;20026;-68
2021/09/05 04:02:22;;;;;;;8.40;5.85;;;13.50;86.60;;;;;;5029025;28;20040;-68
2021/09/05 04:04:48;;;;;;;9.48;5.30;;;13.40;86.70;;;;;;5029747;28;20037;-68
2021/09/05 04:07:17;;;;;;;9.15;5.82;;;13.40;86.90;;;;;;5027644;28;20030;-68
2021/09/05 04:12:27;;;;;;;8.25;5.57;;;13.40;87.00;;;;;;5037347;28;20160;-68
2021/09/05 04:14:52;;;;;;;8.07;5.93;;;13.40;86.90;;;;;;5028790;28;20511;-68
2021/09/05 04:17:18;;;;;;;8.90;6.30;;;13.40;87.00;;;;;;5029253;28;20037;-68
2021/09/05 04:19:44;;;;;;;8.05;5.85;;;13.30;87.10;;;;;;5024609;28;20022;-68
2021/09/05 04:22:10;;;;;;;9.38;6.68;;;13.30;87.10;;;;;;5029583;28;20405;-68
2021/09/05 04:24:35;;;;;;;9.13;6.60;;;13.30;87.20;;;;;;5010980;28;20029;-68
2021/09/05 04:27:01;;;;;;;10.77;7.03;;;13.20;87.40;;;;;;5025644;28;20805;-69
2021/09/05 04:29:27;;;;;;;10.52;6.90;;;13.20;87.50;;;;;;5023708;28;20350;-68
2021/09/05 04:31:53;;;;;;;30.63;15.75;;;13.20;87.50;;;;;;5055699;22;20015;-70
2021/09/05 04:34:18;;;;;;;22.75;12.32;;;13.10;87.60;;;;;;5035023;28;20028;-69
2021/09/05 04:36:44;;;;;;;16.77;10.07;;;13.20;87.70;;;;;;5032707;28;20029;-69
2021/09/05 04:39:09;;;;;;;10.25;6.43;;;13.20;87.70;;;;;;5024439;28;20120;-69
2021/09/05 04:41:35;;;;;;;8.23;5.68;;;13.20;88.20;;;;;;5053869;28;20095;-69
2021/09/05 04:44:01;;;;;;;6.80;5.18;;;13.20;87.60;;;;;;5059880;28;20108;-69
2021/09/05 04:46:27;;;;;;;8.98;6.10;;;13.10;87.60;;;;;;5057215;28;20468;-69
2021/09/05 04:48:52;;;;;;;6.45;4.93;;;13.10;87.70;;;;;;5052765;28;20025;-69
2021/09/05 04:51:18;;;;;;;6.35;4.70;;;13.10;87.80;;;;;;5053199;28;20485;-70
2021/09/05 04:53:43;;;;;;;6.85;4.80;;;13.10;87.70;;;;;;5036806;28;20111;-69
2021/09/05 04:56:11;;;;;;;8.13;4.95;;;13.10;87.70;;;;;;5051947;28;20068;-69
2021/09/05 04:58:36;;;;;;;6.32;4.50;;;13.10;88.20;;;;;;5034839;28;20029;-69
2021/09/05 05:01:02;;;;;;;7.45;5.10;;;13.10;87.80;;;;;;5052714;28;20033;-69
2021/09/05 05:03:27;;;;;;;6.18;4.63;;;13.00;87.80;;;;;;5058644;28;20100;-69
2021/09/05 05:05:53;;;;;;;6.07;4.80;;;13.00;87.80;;;;;;5052737;28;20029;-69
2021/09/05 05:08:19;;;;;;;6.65;4.78;;;13.00;87.80;;;;;;5035139;28;20024;-69
2021/09/05 05:10:45;;;;;;;6.72;4.43;;;13.00;87.90;;;;;;5052368;28;20024;-69
2021/09/05 05:13:10;;;;;;;5.53;4.60;;;13.00;88.00;;;;;;5050226;28;20558;-69
2021/09/05 05:15:36;;;;;;;5.13;4.50;;;13.00;88.10;;;;;;5057148;28;20033;-69
2021/09/05 05:18:02;;;;;;;4.93;4.25;;;13.00;88.10;;;;;;5050827;28;20107;-69
2021/09/05 05:20:29;;;;;;;5.30;4.53;;;13.00;88.20;;;;;;5034419;28;20465;-69
2021/09/05 05:22:55;;;;;;;5.15;4.38;;;13.00;88.10;;;;;;5052102;28;20023;-69
2021/09/05 05:25:20;;;;;;;6.00;4.43;;;13.00;88.10;;;;;;5049307;28;20108;-69
2021/09/05 05:27:46;;;;;;;6.53;4.55;;;13.00;88.10;;;;;;5056493;28;20489;-69
2021/09/05 05:30:12;;;;;;;4.60;3.67;;;13.10;88.20;;;;;;5037391;28;20385;-69
2021/09/05 05:32:38;;;;;;;7.20;4.45;;;13.10;88.30;;;;;;5063379;28;20036;-69
2021/09/05 05:35:04;;;;;;;7.72;4.85;;;13.10;88.30;;;;;;5052638;28;20041;-70
2021/09/05 05:37:30;;;;;;;5.50;4.65;;;13.10;88.20;;;;;;5051659;28;20682;-69
2021/09/05 05:39:56;;;;;;;6.15;4.15;;;13.10;88.20;;;;;;5034152;28;20132;-69
2021/09/05 05:42:21;;;;;;;4.72;4.22;;;13.10;88.30;;;;;;5052116;28;20039;-69
2021/09/05 05:44:47;;;;;;;5.50;4.25;;;13.10;88.40;;;;;;5053825;28;20025;-69
2021/09/05 05:47:13;;;;;;;7.20;4.78;;;13.10;88.50;;;;;;5033814;28;20025;-69
2021/09/05 05:49:40;;;;;;;7.18;4.60;;;13.10;88.60;;;;;;5051830;28;20029;-69
2021/09/05 05:52:06;;;;;;;7.05;4.85;;;13.10;88.70;;;;;;5050537;28;20025;-69
2021/09/05 05:54:31;;;;;;;6.15;4.20;;;13.10;88.90;;;;;;5051394;28;20040;-69
2021/09/05 05:56:57;;;;;;;6.03;4.72;;;13.10;88.90;;;;;;5053461;28;20036;-69
2021/09/05 05:59:23;;;;;;;6.22;4.50;;;13.10;89.10;;;;;;5034100;28;20064;-70
2021/09/05 06:01:48;;;;;;;5.63;4.32;;;13.10;89.20;;;;;;5033756;28;20059;-71
2021/09/05 06:04:14;;;;;;;5.57;4.32;;;13.00;89.30;;;;;;5053139;28;20025;-71
2021/09/05 06:06:40;;;;;;;6.75;4.70;;;13.10;89.40;;;;;;5032909;28;20669;-70
2021/09/05 06:09:06;;;;;;;5.55;4.78;;;13.10;89.50;;;;;;5033021;28;20032;-71
2021/09/05 06:11:31;;;;;;;6.85;4.63;;;13.10;89.70;;;;;;5039359;28;20115;-71
2021/09/05 06:13:57;;;;;;;6.32;4.70;;;13.10;89.80;;;;;;5059555;28;20103;-70
2021/09/05 06:16:23;;;;;;;5.18;4.18;;;13.20;89.90;;;;;;5052816;28;20127;-71
2021/09/05 06:18:48;;;;;;;6.32;4.47;;;13.30;90.00;;;;;;5051117;28;20049;-69
2021/09/05 06:21:14;;;;;;;5.78;4.68;;;13.30;90.00;;;;;;5051405;28;20031;-71
2021/09/05 06:23:40;;;;;;;6.22;4.60;;;13.40;90.00;;;;;;5051813;28;20048;-70
2021/09/05 06:26:06;;;;;;;7.43;5.38;;;13.40;90.00;;;;;;5056018;28;20477;-71
2021/09/05 06:28:31;;;;;;;7.88;4.88;;;13.50;90.00;;;;;;5042004;28;20114;-70
2021/09/05 06:30:57;;;;;;;9.38;5.18;;;13.50;90.00;;;;;;5061198;28;20074;-71
2021/09/05 06:33:23;;;;;;;7.00;5.00;;;13.60;90.10;;;;;;5051570;28;20033;-71
2021/09/05 06:35:48;;;;;;;6.88;5.20;;;13.60;90.00;;;;;;5054817;28;20057;-71
2021/09/05 06:38:14;;;;;;;6.32;5.38;;;13.70;90.10;;;;;;5052839;28;20032;-71
2021/09/05 06:40:39;;;;;;;6.82;5.35;;;13.70;90.10;;;;;;5035067;28;20115;-71
2021/09/05 06:43:05;;;;;;;5.75;4.78;;;13.70;90.20;;;;;;5055106;28;20029;-70
2021/09/05 06:45:31;;;;;;;6.30;4.90;;;13.80;90.20;;;;;;5061700;28;20021;-71
2021/09/05 06:47:57;;;;;;;8.32;5.43;;;13.90;90.20;;;;;;5049642;28;20029;-70
2021/09/05 06:50:23;;;;;;;6.53;5.50;;;13.90;90.20;;;;;;5056125;28;20021;-70
2021/09/05 06:52:49;;;;;;;7.72;6.05;;;13.90;90.30;;;;;;5059534;28;20031;-70
2021/09/05 06:55:14;;;;;;;9.32;7.10;;;14.00;90.30;;;;;;5041672;28;20043;-70
2021/09/05 06:57:40;;;;;;;8.00;6.28;;;14.10;90.30;;;;;;5049984;28;20036;-71
2021/09/05 07:00:06;;;;;;;9.77;6.53;;;14.10;90.40;;;;;;5050624;28;20025;-71
2021/09/05 07:02:32;;;;;;;6.78;5.57;;;14.20;90.40;;;;;;5044634;28;20029;-71
2021/09/05 07:04:57;;;;;;;8.60;5.53;;;14.30;90.50;;;;;;5048941;28;20020;-69
2021/09/05 07:07:23;;;;;;;8.40;5.68;;;14.30;90.50;;;;;;5030457;28;20496;-71
2021/09/05 07:09:49;;;;;;;8.57;5.97;;;14.50;90.50;;;;;;5029801;28;20040;-70
2021/09/05 07:12:14;;;;;;;9.38;5.75;;;14.50;90.50;;;;;;5049357;28;20020;-70
2021/09/05 07:14:40;;;;;;;8.60;5.80;;;14.70;90.60;;;;;;5049364;28;20080;-70
2021/09/05 07:17:05;;;;;;;7.65;5.82;;;14.70;90.60;;;;;;5050325;28;20083;-70
2021/09/05 07:19:31;;;;;;;6.63;5.88;;;14.90;90.70;;;;;;5059206;28;20108;-70
2021/09/05 07:21:56;;;;;;;7.38;6.03;;;15.00;90.70;;;;;;5034344;28;20120;-70
2021/09/05 07:24:22;;;;;;;8.70;6.43;;;15.20;90.70;;;;;;5053226;28;20024;-70
2021/09/05 07:26:48;;;;;;;9.30;6.82;;;15.40;90.50;;;;;;5049674;28;20029;-70
2021/09/05 07:29:13;;;;;;;9.23;6.38;;;15.80;90.30;;;;;;5032820;28;20404;-70
2021/09/05 07:31:39;;;;;;;8.57;5.82;;;16.40;89.80;;;;;;5050126;28;20025;-71
2021/09/05 07:34:04;;;;;;;6.93;4.80;;;17.30;88.30;;;;;;5045992;28;20393;-70
2021/09/05 07:36:31;;;;;;;6.55;5.20;;;18.10;86.80;;;;;;5048160;28;20029;-71
2021/09/05 07:38:57;;;;;;;5.85;4.97;;;18.80;85.30;;;;;;5052884;28;20070;-67
2021/09/05 07:41:22;;;;;;;6.63;4.95;;;19.50;84.10;;;;;;5048279;28;20029;-70
2021/09/05 07:43:48;;;;;;;6.97;4.70;;;19.80;83.20;;;;;;5053393;28;20028;-70
2021/09/05 07:46:13;;;;;;;5.43;4.32;;;19.70;83.50;;;;;;5034142;28;20469;-70
2021/09/05 07:48:39;;;;;;;6.25;4.55;;;20.10;83.50;;;;;;5054941;28;20071;-68
2021/09/05 07:51:04;;;;;;;5.03;4.22;;;20.90;82.00;;;;;;5034520;28;20455;-68
2021/09/05 07:53:30;;;;;;;7.10;4.97;;;21.70;80.10;;;;;;5048584;28;20039;-69
2021/09/05 07:55:55;;;;;;;7.32;4.90;;;22.40;78.10;;;;;;5050153;28;20099;-68
2021/09/05 07:58:24;;;;;;;6.53;4.32;;;22.80;76.30;;;;;;5037047;28;20024;-69
2021/09/05 08:00:50;;;;;;;6.38;4.53;;;23.30;75.20;;;;;;5031177;28;20021;-69
2021/09/05 08:03:15;;;;;;;5.55;4.70;;;23.60;73.90;;;;;;5049926;28;20029;-68
2021/09/05 08:05:41;;;;;;;9.77;4.35;;;24.00;73.50;;;;;;5049062;28;20025;-71
2021/09/05 08:08:06;;;;;;;6.28;4.63;;;24.50;72.70;;;;;;5035515;28;20397;-70
2021/09/05 08:10:33;;;;;;;6.10;4.88;;;24.80;71.30;;;;;;5041269;28;20045;-70
2021/09/05 08:12:58;;;;;;;6.07;4.53;;;25.20;70.50;;;;;;5044127;28;20131;-69
2021/09/05 08:15:24;;;;;;;4.55;4.07;;;25.60;69.90;;;;;;5030761;28;20136;-68
2021/09/05 08:17:50;;;;;;;5.22;4.30;;;26.10;68.50;;;;;;5061781;28;20032;-67
2021/09/05 08:20:16;;;;;;;4.47;3.67;;;26.50;67.70;;;;;;5054646;28;20410;-67
2021/09/05 08:22:41;;;;;;;5.28;3.63;;;26.80;66.90;;;;;;5051331;28;20473;-68
2021/09/05 08:25:08;;;;;;;4.28;3.88;;;27.20;66.30;;;;;;5051090;28;20059;-72
2021/09/05 08:27:33;;;;;;;5.07;3.63;;;27.40;65.30;;;;;;5032559;28;20033;-69
2021/09/05 08:29:59;;;;;;;4.07;3.63;;;27.50;65.20;;;;;;5046270;28;20063;-70
2021/09/05 08:32:24;;;;;;;5.43;4.10;;;27.50;65.10;;;;;;5053293;28;20107;-70
2021/09/05 08:34:50;;;;;;;5.75;3.55;;;27.50;65.30;;;;;;5054279;28;20151;-68
2021/09/05 08:37:16;;;;;;;4.88;4.30;;;27.40;65.40;;;;;;5053208;28;21957;-68
2021/09/05 08:39:41;;;;;;;4.80;3.90;;;27.40;65.90;;;;;;5039393;28;20020;-69
2021/09/05 08:42:07;;;;;;;5.60;3.85;;;27.30;66.00;;;;;;5052550;28;20043;-67
2021/09/05 08:44:33;;;;;;;4.78;4.38;;;27.30;66.50;;;;;;5056019;28;20025;-68
2021/09/05 08:46:59;;;;;;;4.72;3.53;;;27.30;66.40;;;;;;5052137;28;20044;-69
2021/09/05 08:49:33;;;;;;;4.75;3.58;;;27.30;65.60;;;;;;5053698;28;20381;-69
2021/09/05 08:51:58;;;;;;;5.65;3.83;;;27.30;64.50;;;;;;5053162;28;20029;-67
2021/09/05 08:54:24;;;;;;;4.35;3.83;;;27.30;65.00;;;;;;5051862;28;20098;-69
2021/09/05 08:56:52;;;;;;;5.25;3.65;;;27.30;64.80;;;;;;5051984;28;20397;-70
2021/09/05 08:59:17;;;;;;;3.67;3.33;;;27.40;64.80;;;;;;5052834;28;20036;-70
2021/09/05 09:01:59;;;;;;;3.65;3.35;;;27.40;64.80;;;;;;5051667;28;20033;-70
2021/09/05 09:04:25;;;;;;;4.82;3.35;;;27.50;63.40;;;;;;5051232;28;20032;-71
2021/09/05 09:06:50;;;;;;;4.25;3.60;;;27.50;64.00;;;;;;5048851;28;20025;-71
2021/09/05 09:09:16;;;;;;;4.65;3.50;;;27.50;62.90;;;;;;5033105;28;20032;-69
2021/09/05 09:11:49;;;;;;;5.15;2.80;;;27.60;62.60;;;;;;5049344;28;20075;-71
2021/09/05 09:14:15;;;;;;;6.22;3.08;;;27.60;61.20;;;;;;5046993;28;20496;-71
2021/09/05 09:16:41;;;;;;;5.28;3.05;;;27.70;61.90;;;;;;5030444;28;20078;-71
2021/09/05 09:19:07;;;;;;;4.03;3.63;;;27.70;61.10;;;;;;5055265;28;20428;-71
2021/09/05 09:21:40;;;;;;;3.72;3.38;;;27.80;60.40;;;;;;5050485;28;20056;-71
2021/09/05 09:24:10;;;;;;;4.85;3.35;;;27.70;59.40;;;;;;5053719;28;20017;-72
2021/09/05 09:26:36;;;;;;;5.13;3.50;;;27.60;59.70;;;;;;5050165;28;20032;-71
2021/09/05 09:29:02;;;;;;;3.30;3.00;;;27.60;60.40;;;;;;5031833;28;20124;-71
2021/09/05 09:31:28;;;;;;;12.38;7.68;;;27.70;59.30;;;;;;5032881;28;20029;-72
2021/09/05 09:33:55;;;;;;;28.13;24.35;;;27.80;58.70;;;;;;5052218;28;20579;-71
2021/09/05 09:36:23;;;;;;;8.38;6.40;;;27.80;58.30;;;;;;5051182;28;20108;-70
2021/09/05 09:38:54;;;;;;;4.38;3.45;;;27.30;57.50;;;;;;5050032;28;20039;-70
2021/09/05 09:41:20;;;;;;;4.63;3.65;;;26.80;58.00;;;;;;5032906;28;20685;-71
2021/09/05 09:44:00;;;;;;;4.15;3.17;;;26.50;59.40;;;;;;5050958;28;20031;-71
2021/09/05 09:46:29;;;;;;;5.10;2.90;;;26.50;60.20;;;;;;5049344;28;20021;-71
2021/09/05 09:48:57;;;;;;;3.35;2.85;;;26.70;59.20;;;;;;5033469;28;20025;-71
2021/09/05 09:51:23;;;;;;;6.82;3.20;;;27.00;58.40;;;;;;5050551;28;20377;-71
2021/09/05 09:53:50;;;;;;;5.18;3.42;;;27.30;57.80;;;;;;5050798;28;20047;-71
2021/09/05 09:56:17;;;;;;;3.58;2.75;;;27.30;56.70;;;;;;5050357;28;20154;-71
2021/09/05 09:58:45;;;;;;;3.13;2.83;;;27.20;56.90;;;;;;5051605;28;20409;-72
2021/09/05 10:01:14;;;;;;;4.97;2.88;;;27.40;56.60;;;;;;5051034;28;20082;-71
2021/09/05 10:03:41;;;;;;;6.85;6.00;;;27.50;55.90;;;;;;5060747;28;20032;-71
2021/09/05 10:06:07;;;;;;;3.50;3.17;;;27.70;55.80;;;;;;5049785;28;20545;-71
2021/09/05 10:08:35;;;;;;;7.38;3.42;;;27.70;55.50;;;;;;5051690;28;20154;-71
2021/09/05 10:11:01;;;;;;;5.93;3.20;;;27.80;55.70;;;;;;5032881;28;20025;-71
2021/09/05 10:13:31;;;;;;;3.72;3.13;;;27.80;55.30;;;;;;5050551;28;20073;-71
2021/09/05 10:15:57;;;;;;;4.38;3.15;;;27.80;54.60;;;;;;5031561;28;20020;-71
2021/09/05 10:18:24;;;;;;;3.95;3.28;;;27.90;54.70;;;;;;5049234;28;20491;-71
2021/09/05 10:20:49;;;;;;;3.53;3.20;;;28.00;54.40;;;;;;5050911;28;20020;-71
2021/09/05 10:23:26;;;;;;;3.03;2.60;;;28.10;54.30;;;;;;5039929;28;20100;-71
2021/09/05 10:25:52;;;;;;;3.35;2.50;;;28.30;52.80;;;;;;5031910;28;20025;-71
2021/09/05 10:28:33;;;;;;;4.10;2.80;;;28.40;52.60;;;;;;5033222;28;20033;-71
2021/09/05 10:30:59;;;;;;;4.20;3.40;;;28.40;51.70;;;;;;5052025;28;20017;-71
2021/09/05 10:33:51;;;;;;;3.78;2.58;;;28.40;52.00;;;;;;5063218;22;20460;-68
2021/09/05 10:36:25;;;;;;;3.83;2.22;;;28.50;51.60;;;;;;5043228;28;20282;-66
2021/09/05 10:38:52;;;;;;;2.70;2.50;;;28.60;51.20;;;;;;5024538;28;20033;-66
2021/09/05 10:41:20;;;;;;;3.17;2.50;;;28.60;50.50;;;;;;5037972;28;20040;-70
2021/09/05 10:43:53;;;;;;;3.25;2.85;;;28.60;50.00;;;;;;5049313;28;20449;-70
2021/09/05 10:46:23;;;;;;;3.53;2.60;;;28.50;50.10;;;;;;5026586;28;20445;-67
2021/09/05 10:48:51;;;;;;;4.18;2.88;;;28.50;50.00;;;;;;5050742;28;20107;-67
2021/09/05 10:51:22;;;;;;;2.75;2.47;;;28.60;49.40;;;;;;5045207;28;20444;-66
2021/09/05 10:53:49;;;;;;;4.32;2.58;;;28.70;49.30;;;;;;5055375;28;20029;-66
2021/09/05 10:56:16;;;;;;;2.63;2.42;;;28.60;48.80;;;;;;5049937;28;20056;-66
2021/09/05 10:58:58;;;;;;;5.05;2.72;;;28.60;48.90;;;;;;5045537;28;20033;-70
2021/09/05 11:01:30;;;;;;;5.75;2.60;;;28.60;48.60;;;;;;5031225;28;20112;-66
2021/09/05 11:04:14;;;;;;;5.80;2.45;;;28.60;48.60;;;;;;5048316;28;20143;-66
2021/09/05 11:06:43;;;;;;;4.25;2.60;;;28.50;48.30;;;;;;5037109;28;22000;-67
2021/09/05 11:09:21;;;;;;;2.80;2.60;;;28.60;48.40;;;;;;5049560;28;20017;-65
2021/09/05 11:12:31;;;;;;;3.20;2.90;;;28.60;48.30;;;;;;5049777;28;20021;-66
2021/09/05 11:14:58;;;;;;;4.10;3.20;;;28.60;48.20;;;;;;5036561;28;20048;-66
2021/09/05 11:17:32;;;;;;;3.97;2.88;;;28.60;48.70;;;;;;5047067;28;20116;-65
2021/09/05 11:20:12;;;;;;;4.63;3.20;;;28.60;48.40;;;;;;5049945;28;20036;-68
2021/09/05 11:22:41;;;;;;;2.83;2.50;;;28.40;48.50;;;;;;5045415;28;20063;-68
2021/09/05 11:25:30;;;;;;;2.95;2.65;;;28.30;48.30;;;;;;5039249;28;20033;-69
2021/09/05 11:28:03;;;;;;;3.55;2.65;;;28.20;48.50;;;;;;5049207;28;20023;-66
2021/09/05 11:30:32;;;;;;;3.67;2.60;;;28.00;48.10;;;;;;5047917;28;20445;-70
2021/09/05 11:33:01;;;;;;;4.90;2.95;;;27.90;48.10;;;;;;5037079;28;20029;-66
2021/09/05 11:35:33;;;;;;;3.40;3.10;;;27.70;48.50;;;;;;5041248;28;20025;-65
2021/09/05 11:37:58;;;;;;;3.40;2.80;;;27.50;48.80;;;;;;5050101;28;20044;-66
2021/09/05 11:40:24;;;;;;;3.20;2.90;;;27.50;49.30;;;;;;5044739;28;20033;-67
2021/09/05 11:42:52;;;;;;;3.65;2.70;;;27.50;49.80;;;;;;5049298;28;20060;-67
2021/09/05 11:45:21;;;;;;;4.63;2.67;;;27.60;49.10;;;;;;5043035;28;20024;-68
2021/09/05 11:47:47;;;;;;;2.83;2.53;;;27.60;48.40;;;;;;5045860;28;20377;-68
2021/09/05 11:50:14;;;;;;;3.67;2.47;;;27.50;48.20;;;;;;5046519;28;20024;-67
2021/09/05 11:52:41;;;;;;;4.13;2.90;;;27.40;47.90;;;;;;5048005;28;20112;-67
2021/09/05 11:55:17;;;;;;;3.15;2.75;;;27.20;48.10;;;;;;5053229;28;20017;-67
2021/09/05 11:57:59;;;;;;;4.47;2.75;;;27.30;48.10;;;;;;5045901;28;20029;-68
2021/09/05 12:00:36;;;;;;;4.63;2.83;;;27.30;48.60;;;;;;5053002;28;20021;-68
2021/09/05 12:03:04;;;;;;;5.72;4.20;;;27.30;48.60;;;;;;5053274;28;20032;-65
2021/09/05 12:05:30;;;;;;;4.57;3.75;;;27.20;48.60;;;;;;5041855;28;20497;-64
2021/09/05 12:07:56;;;;;;;2.83;2.42;;;27.10;48.50;;;;;;5052174;28;20033;-67
2021/09/05 12:10:25;;;;;;;4.90;2.88;;;27.10;48.70;;;;;;5050610;28;20074;-66
2021/09/05 12:12:58;;;;;;;3.70;2.72;;;27.20;49.90;;;;;;5053386;28;20021;-67
2021/09/05 12:15:24;;;;;;;3.95;3.05;;;27.30;48.90;;;;;;5052447;28;20049;-65
2021/09/05 12:17:51;;;;;;;4.28;2.50;;;27.40;48.80;;;;;;5050725;28;20029;-66
2021/09/05 12:20:20;;;;;;;4.03;2.72;;;27.40;48.10;;;;;;5053546;28;20511;-67
2021/09/05 12:22:54;;;;;;;3.03;2.70;;;27.50;48.40;;;;;;5052594;28;20087;-64
2021/09/05 12:25:40;;;;;;;3.35;2.60;;;27.70;48.20;;;;;;5045541;28;20021;-68
2021/09/05 12:28:08;;;;;;;3.47;2.50;;;27.90;48.20;;;;;;5050824;28;20041;-68
2021/09/05 12:30:38;;;;;;;5.45;2.75;;;27.90;47.80;;;;;;5043235;28;20493;-67
2021/09/05 12:33:16;;;;;;;3.30;2.67;;;27.90;47.80;;;;;;5042052;28;20034;-68
2021/09/05 12:35:46;;;;;;;3.95;2.80;;;27.90;47.50;;;;;;5050254;28;20075;-67
2021/09/05 12:38:13;;;;;;;3.88;3.03;;;27.90;48.20;;;;;;5041774;28;20118;-67
2021/09/05 12:40:46;;;;;;;3.15;2.83;;;28.10;48.40;;;;;;5045975;28;20203;-68
2021/09/05 12:43:13;;;;;;;3.47;3.17;;;28.10;47.40;;;;;;5050947;28;20102;-68
2021/09/05 12:45:51;;;;;;;3.08;2.60;;;28.20;47.90;;;;;;5050347;28;20033;-65
2021/09/05 12:48:18;;;;;;;4.32;2.60;;;28.20;47.50;;;;;;5049463;28;20168;-67